Time;durP1;ratioP1;P1;durP2;ratioP2;P2;SDS_P1;SDS_P2;PMS_P1;PMS_P2;Temp;Humidity;BMP_temperature;BMP_pressure;BME280_temperature;BME280_humidity;BME280_pressure;Samples;Min_cycle;Max_cycle;Signal;HPM_P1;HPM_P2
2022/12/26 00:00:27;;;;;;;51.60;32.23;;;;;;;4.25;100.00;99015.67;2292561;78;20920;-83
2022/12/26 00:03:29;;;;;;;52.47;33.20;;;;;;;4.21;100.00;99008.63;2292628;78;20943;-82
2022/12/26 00:06:28;;;;;;;53.10;31.63;;;;;;;4.20;100.00;99004.27;2292593;78;20873;-83
2022/12/26 00:09:28;;;;;;;52.43;31.33;;;;;;;4.23;100.00;99016.44;2292405;78;21016;-82
2022/12/26 00:12:28;;;;;;;53.87;32.60;;;;;;;4.27;100.00;99001.11;2292307;78;20956;-83
2022/12/26 00:15:29;;;;;;;53.17;32.60;;;;;;;4.27;100.00;98990.77;2292400;78;21306;-83
2022/12/26 00:18:29;;;;;;;49.33;31.80;;;;;;;4.27;100.00;98989.89;2292386;78;20944;-83
2022/12/26 00:21:30;;;;;;;53.00;31.93;;;;;;;4.25;100.00;98977.33;2292467;78;21284;-82
2022/12/26 00:24:30;;;;;;;51.43;32.60;;;;;;;4.20;100.00;98964.23;2292272;78;20947;-83
2022/12/26 00:27:30;;;;;;;51.90;32.07;;;;;;;4.19;100.00;98966.34;2292375;78;20959;-82
2022/12/26 00:30:31;;;;;;;48.00;31.10;;;;;;;4.21;100.00;98969.86;2292320;78;20908;-83
2022/12/26 00:33:31;;;;;;;50.63;31.20;;;;;;;4.19;100.00;98976.67;2292295;78;20925;-81
2022/12/26 00:36:31;;;;;;;51.53;32.53;;;;;;;4.21;100.00;98978.91;2291944;78;20980;-81
2022/12/26 00:39:32;;;;;;;52.07;32.33;;;;;;;4.24;100.00;98979.44;2292167;78;20986;-82
2022/12/26 00:42:32;;;;;;;47.30;31.37;;;;;;;4.25;100.00;98977.33;2292514;78;20943;-83
2022/12/26 00:45:33;;;;;;;52.57;32.23;;;;;;;4.28;100.00;98986.48;2291951;78;20971;-83
2022/12/26 00:48:33;;;;;;;48.07;29.83;;;;;;;4.27;100.00;98984.31;2292420;78;21030;-82
2022/12/26 00:51:33;;;;;;;45.70;30.33;;;;;;;4.28;100.00;98979.61;2292899;78;20920;-82
2022/12/26 00:54:34;;;;;;;46.17;26.97;;;;;;;4.31;100.00;98972.39;2292652;78;20971;-82
2022/12/26 00:57:34;;;;;;;48.43;30.30;;;;;;;4.32;100.00;98973.74;2292703;78;20904;-82
2022/12/26 01:00:35;;;;;;;50.80;30.00;;;;;;;4.27;100.00;98967.52;2292641;78;20955;-82
2022/12/26 01:03:35;;;;;;;48.93;29.87;;;;;;;4.25;100.00;98962.70;2292937;78;20924;-82
2022/12/26 01:06:35;;;;;;;43.93;27.63;;;;;;;4.24;100.00;98949.31;2292614;78;20954;-82
2022/12/26 01:09:37;;;;;;;47.13;29.73;;;;;;;4.21;100.00;98941.44;2292780;78;21366;-82
2022/12/26 01:12:36;;;;;;;51.83;30.87;;;;;;;4.18;100.00;98938.74;2293738;78;20973;-82
2022/12/26 01:15:37;;;;;;;47.97;29.13;;;;;;;4.14;100.00;98949.78;2285808;78;21369;-83
2022/12/26 01:18:37;;;;;;;45.43;28.27;;;;;;;4.14;100.00;98958.41;2283097;78;20954;-82
2022/12/26 01:21:38;;;;;;;46.03;28.90;;;;;;;4.15;100.00;98957.59;2282996;78;21356;-83
2022/12/26 01:24:38;;;;;;;52.80;30.07;;;;;;;4.16;100.00;98954.19;2282956;78;20950;-82
2022/12/26 01:27:39;;;;;;;44.30;28.00;;;;;;;4.18;100.00;98950.78;2283308;78;21020;-82
2022/12/26 01:30:39;;;;;;;46.20;28.87;;;;;;;4.19;100.00;98949.55;2283370;78;21294;-82
2022/12/26 01:33:39;;;;;;;45.70;29.53;;;;;;;4.20;100.00;98953.89;2283098;78;20945;-83
2022/12/26 01:36:40;;;;;;;43.33;28.87;;;;;;;4.19;100.00;98949.55;2283095;78;20938;-82
2022/12/26 01:39:40;;;;;;;47.27;28.47;;;;;;;4.18;100.00;98952.07;2282907;77;20961;-82
2022/12/26 01:42:41;;;;;;;45.27;28.43;;;;;;;4.15;100.00;98947.25;2282988;78;21016;-83
2022/12/26 01:45:41;;;;;;;47.27;28.90;;;;;;;4.17;100.00;98940.86;2283098;78;20907;-83
2022/12/26 01:48:41;;;;;;;42.27;27.93;;;;;;;4.19;100.00;98943.09;2283096;78;21030;-82
2022/12/26 01:51:42;;;;;;;47.73;28.70;;;;;;;4.19;100.00;98946.96;2283170;78;20930;-82
2022/12/26 01:54:42;;;;;;;43.80;28.07;;;;;;;4.23;99.90;98927.29;2282864;78;20981;-83
2022/12/26 01:57:43;;;;;;;45.63;29.10;;;;;;;4.22;99.80;98933.28;2282853;78;20970;-82
2022/12/26 02:00:43;;;;;;;43.73;26.97;;;;;;;4.20;99.59;98929.34;2283150;78;20950;-82
2022/12/26 02:07:02;;;;;;;41.40;27.57;;;;;;;4.15;99.70;98915.38;2282860;78;20958;-83
2022/12/26 02:10:03;;;;;;;42.40;28.50;;;;;;;4.11;99.72;98883.78;2270764;77;21064;-82
2022/12/26 02:13:03;;;;;;;45.40;28.43;;;;;;;4.07;99.74;98876.75;2250383;79;20944;-83
2022/12/26 02:16:04;;;;;;;39.77;25.23;;;;;;;4.02;99.74;98892.48;2250297;79;20971;-82
2022/12/26 02:19:04;;;;;;;51.67;29.77;;;;;;;3.98;99.93;98900.52;2250592;79;20983;-82
2022/12/26 02:22:04;;;;;;;43.27;27.57;;;;;;;3.95;99.90;98887.49;2250323;79;20920;-82
2022/12/26 02:25:05;;;;;;;44.33;27.33;;;;;;;3.90;100.00;98891.59;2249926;79;20974;-82
2022/12/26 02:28:05;;;;;;;41.97;26.13;;;;;;;3.92;100.00;98887.78;2250157;79;20975;-82
2022/12/26 02:31:06;;;;;;;44.13;26.67;;;;;;;3.93;100.00;98884.38;2250265;79;21336;-82
2022/12/26 02:34:06;;;;;;;40.53;25.40;;;;;;;3.96;100.00;98884.09;2250108;79;20951;-84
2022/12/26 02:37:06;;;;;;;41.57;25.43;;;;;;;3.99;100.00;98868.70;2250340;79;20924;-82
2022/12/26 02:40:07;;;;;;;44.87;26.60;;;;;;;4.02;100.00;98869.23;2250049;79;21386;-82
2022/12/26 02:43:07;;;;;;;42.60;26.30;;;;;;;4.03;100.00;98866.70;2249888;79;20915;-82
2022/12/26 02:49:27;;;;;;;38.20;25.20;;;;;;;4.10;99.89;98858.78;2250186;78;20959;-82
2022/12/26 03:18:56;;;;;;;40.00;23.93;;;;;;;4.31;98.99;98792.38;2250670;78;20975;-82
2022/12/26 03:21:57;;;;;;;33.73;22.33;;;;;;;4.31;98.49;98797.55;2250487;79;20988;-82
2022/12/26 03:28:16;;;;;;;36.97;23.37;;;;;;;4.26;98.33;98796.92;2250642;78;21004;-82
2022/12/26 03:31:16;;;;;;;39.23;24.03;;;;;;;4.25;98.42;98796.04;2250685;79;21000;-82
2022/12/26 03:34:17;;;;;;;32.37;22.30;;;;;;;4.26;98.31;98796.51;2250628;79;20915;-81
2022/12/26 03:37:17;;;;;;;40.37;23.60;;;;;;;4.27;98.11;98793.52;2250835;79;20924;-81
2022/12/26 04:19:52;;;;;;;33.83;20.07;;;;;;;4.28;97.67;98726.38;2292855;77;20952;-82
2022/12/26 04:46:04;;;;;;;33.33;18.83;;;;;;;4.26;97.46;98713.83;2292108;77;20928;-84
2022/12/26 04:52:23;;;;;;;25.57;17.53;;;;;;;4.25;97.42;98720.23;2291845;77;20921;-83
2022/12/26 04:55:25;;;;;;;29.17;18.07;;;;;;;4.27;97.43;98720.75;2268590;78;20967;-81
2022/12/26 04:58:25;;;;;;;25.93;17.00;;;;;;;4.28;97.50;98732.84;2292068;78;20920;-83
2022/12/26 05:11:22;;;;;;;25.33;16.57;;;;;;;4.38;96.97;98725.03;2285663;77;21032;-80
2022/12/26 05:14:22;;;;;;;26.00;15.80;;;;;;;4.39;97.06;98740.59;2281203;78;20976;-82
2022/12/26 05:30:38;;;;;;;26.67;15.73;;;;;;;4.48;96.59;98697.37;2282290;78;20949;-83
2022/12/26 05:36:57;;;;;;;22.47;15.43;;;;;;;4.48;96.40;98703.42;2282031;78;20906;-82
2022/12/26 05:39:57;;;;;;;23.20;15.00;;;;;;;4.53;96.34;98720.79;2282253;78;20981;-82
2022/12/26 05:42:58;;;;;;;22.43;14.40;;;;;;;4.53;96.21;98709.16;2282616;78;20990;-82
2022/12/26 05:45:58;;;;;;;24.30;14.10;;;;;;;4.53;96.16;98707.45;2282594;78;20875;-83
2022/12/26 05:48:59;;;;;;;21.80;14.70;;;;;;;4.52;96.16;98697.94;2282566;78;20942;-82
2022/12/26 05:51:59;;;;;;;23.03;14.53;;;;;;;4.54;96.11;98699.28;2282827;78;20898;-82
2022/12/26 05:54:59;;;;;;;19.43;13.43;;;;;;;4.55;96.24;98701.04;2282751;78;21348;-82
2022/12/26 05:58:00;;;;;;;20.57;14.80;;;;;;;4.56;96.05;98690.75;2282565;78;20922;-82
2022/12/26 06:01:00;;;;;;;23.83;14.70;;;;;;;4.57;96.04;98687.75;2282098;78;20915;-80
2022/12/26 06:04:01;;;;;;;49.83;30.53;;;;;;;4.59;96.39;98691.27;2281655;78;20973;-81
2022/12/26 06:07:01;;;;;;;25.20;15.70;;;;;;;4.68;96.81;98701.91;2281181;78;21006;-82
2022/12/26 06:10:01;;;;;;;26.63;15.60;;;;;;;4.74;96.26;98702.98;2279288;78;21016;-81
2022/12/26 06:13:02;;;;;;;23.93;13.83;;;;;;;4.74;95.94;98716.33;2248618;79;20885;-80
2022/12/26 06:16:02;;;;;;;23.77;14.67;;;;;;;4.75;95.77;98721.96;2248210;79;20992;-81
2022/12/26 06:19:03;;;;;;;20.10;13.23;;;;;;;4.75;95.61;98719.38;2248325;79;20956;-80
2022/12/26 06:22:03;;;;;;;17.87;12.30;;;;;;;4.76;95.50;98710.38;2248390;79;20960;-80
2022/12/26 06:25:03;;;;;;;21.33;13.57;;;;;;;4.73;95.24;98715.86;2248416;79;20929;-80
2022/12/26 06:28:04;;;;;;;20.70;12.73;;;;;;;4.68;95.25;98725.17;2248873;79;21328;-81
2022/12/26 06:31:04;;;;;;;19.40;13.30;;;;;;;4.63;95.36;98726.31;2249383;79;20912;-81
2022/12/26 06:34:05;;;;;;;18.87;13.33;;;;;;;4.64;95.36;98724.61;2249360;79;20956;-81
2022/12/26 06:37:05;;;;;;;23.87;13.97;;;;;;;4.61;95.35;98724.51;2249267;79;21340;-81
2022/12/26 06:40:05;;;;;;;21.47;12.97;;;;;;;4.60;95.53;98722.34;2249357;79;21069;-80
2022/12/26 06:43:06;;;;;;;23.37;13.67;;;;;;;4.62;95.51;98722.39;2249425;79;20944;-81
2022/12/26 06:46:06;;;;;;;22.57;13.63;;;;;;;4.62;95.60;98718.09;2249203;79;20881;-80
2022/12/26 06:49:06;;;;;;;25.00;14.27;;;;;;;4.63;95.77;98711.22;2249331;79;20968;-81
2022/12/26 06:52:07;;;;;;;21.93;14.40;;;;;;;4.63;95.76;98716.39;2249105;79;20940;-81
2022/12/26 06:55:07;;;;;;;19.67;13.70;;;;;;;4.65;95.93;98714.31;2249586;79;21356;-81
2022/12/26 06:58:09;;;;;;;20.43;14.23;;;;;;;4.69;96.05;98713.59;2249343;79;20940;-81
2022/12/26 07:01:08;;;;;;;22.33;13.80;;;;;;;4.73;96.20;98709.39;2249120;79;20975;-81
2022/12/26 07:04:09;;;;;;;24.03;14.47;;;;;;;4.79;96.17;98713.48;2248695;79;20944;-80
2022/12/26 07:07:09;;;;;;;23.07;14.47;;;;;;;4.80;96.22;98715.23;2249141;79;20960;-80
2022/12/26 07:10:09;;;;;;;20.03;13.53;;;;;;;4.85;96.33;98717.97;2249598;77;20924;-80
2022/12/26 07:13:10;;;;;;;20.53;13.80;;;;;;;4.89;96.29;98722.41;2281212;78;20938;-81
2022/12/26 07:16:10;;;;;;;22.20;13.90;;;;;;;4.95;96.47;98710.55;2281732;78;20926;-81
2022/12/26 07:19:10;;;;;;;25.23;14.40;;;;;;;4.96;96.62;98705.84;2281898;78;21254;-80
2022/12/26 07:22:11;;;;;;;24.50;15.53;;;;;;;5.00;96.87;98701.64;2281688;78;20946;-81
2022/12/26 07:25:11;;;;;;;24.87;15.37;;;;;;;5.05;97.04;98704.83;2281787;78;20993;-81
2022/12/26 07:28:12;;;;;;;22.87;15.57;;;;;;;5.11;97.15;98701.14;2281813;78;21076;-81
2022/12/26 07:31:12;;;;;;;23.60;15.40;;;;;;;5.17;97.16;98729.33;2281670;78;20910;-80
2022/12/26 07:34:12;;;;;;;21.77;14.83;;;;;;;5.28;97.33;98722.81;2281566;78;20914;-81
2022/12/26 07:37:13;;;;;;;26.13;14.70;;;;;;;5.33;97.05;98705.30;2281604;78;20981;-82
2022/12/26 07:40:13;;;;;;;22.20;15.33;;;;;;;5.35;96.97;98669.11;2281784;78;20959;-81
2022/12/26 07:43:14;;;;;;;22.77;16.73;;;;;;;5.37;96.92;98668.73;2281534;78;20906;-82
2022/12/26 07:46:14;;;;;;;26.73;16.57;;;;;;;5.42;96.96;98677.09;2281914;78;20942;-81
2022/12/26 07:49:14;;;;;;;27.73;17.10;;;;;;;5.52;97.03;98678.66;2281750;78;21377;-82
2022/12/26 07:52:15;;;;;;;24.57;16.37;;;;;;;5.59;97.06;98674.11;2282158;78;20970;-81
2022/12/26 07:55:15;;;;;;;25.63;17.03;;;;;;;5.63;96.89;98657.83;2281506;78;20914;-81
2022/12/26 07:58:16;;;;;;;24.97;17.50;;;;;;;5.69;97.10;98654.12;2281600;78;20933;-81
2022/12/26 08:01:16;;;;;;;33.27;19.40;;;;;;;5.80;97.13;98680.31;2281676;78;20930;-81
2022/12/26 08:04:17;;;;;;;35.97;22.77;;;;;;;5.86;97.08;98689.14;2281540;78;20970;-81
2022/12/26 08:07:17;;;;;;;41.03;24.30;;;;;;;5.94;97.24;98686.79;2281684;78;20948;-81
2022/12/26 08:10:17;;;;;;;41.93;26.83;;;;;;;5.96;97.19;98674.76;2282082;78;20902;-81
2022/12/26 08:13:18;;;;;;;39.23;26.70;;;;;;;5.97;97.22;98673.50;2249630;77;20936;-81
2022/12/26 08:16:18;;;;;;;40.00;24.43;;;;;;;6.02;97.27;98679.69;2249274;79;20916;-81
2022/12/26 08:19:18;;;;;;;120.40;75.50;;;;;;;6.10;97.45;98680.34;2249428;79;20912;-82
2022/12/26 08:22:19;;;;;;;35.20;24.07;;;;;;;6.18;97.65;98675.82;2249534;79;20920;-80
2022/12/26 08:25:19;;;;;;;26.17;19.33;;;;;;;6.24;97.39;98681.16;2249596;79;20888;-82
2022/12/26 08:28:20;;;;;;;28.57;18.37;;;;;;;6.29;97.33;98670.91;2249789;79;20998;-81
2022/12/26 08:31:20;;;;;;;27.50;20.07;;;;;;;6.31;97.33;98679.61;2249362;79;21343;-80
2022/12/26 08:34:20;;;;;;;31.03;19.27;;;;;;;6.28;97.26;98685.59;2249361;79;20913;-81
2022/12/26 08:37:22;;;;;;;36.53;22.47;;;;;;;6.36;97.38;98689.67;2249329;79;20956;-81
2022/12/26 08:40:21;;;;;;;32.13;20.97;;;;;;;6.45;97.59;98683.44;2249528;79;21015;-81
2022/12/26 08:43:22;;;;;;;30.77;20.80;;;;;;;6.53;97.70;98678.02;2249797;79;20959;-82
2022/12/26 08:46:22;;;;;;;30.53;19.60;;;;;;;6.61;97.91;98694.65;2250008;79;20932;-83
2022/12/26 08:49:22;;;;;;;27.07;17.80;;;;;;;6.67;98.06;98683.55;2249474;79;20975;-81
2022/12/26 08:52:23;;;;;;;26.60;18.60;;;;;;;6.77;98.34;98680.34;2249362;79;20952;-82
2022/12/26 08:55:23;;;;;;;24.97;17.10;;;;;;;6.89;98.69;98674.14;2249404;79;20889;-82
2022/12/26 08:58:24;;;;;;;23.23;15.87;;;;;;;7.01;98.65;98674.45;2249436;79;20905;-82
2022/12/26 09:01:24;;;;;;;23.70;15.13;;;;;;;7.18;98.81;98684.34;2249845;79;20987;-82
2022/12/26 09:04:24;;;;;;;21.30;14.47;;;;;;;7.33;98.63;98676.91;2249352;79;20933;-82
2022/12/26 09:07:25;;;;;;;20.97;14.43;;;;;;;7.46;98.33;98675.02;2249744;79;20980;-81
2022/12/26 09:10:25;;;;;;;22.50;15.30;;;;;;;7.61;99.04;98679.23;2249364;79;20920;-81
2022/12/26 09:13:26;;;;;;;20.07;14.93;;;;;;;7.80;99.17;98669.22;2288600;78;20967;-81
2022/12/26 09:16:26;;;;;;;21.63;15.50;;;;;;;7.98;98.56;98659.22;2291610;78;21006;-81
2022/12/26 09:19:31;;;;;;;17.33;12.43;;;;;;;8.14;98.12;98651.28;2291608;78;20896;-82
2022/12/26 09:25:49;;;;;;;22.63;14.70;;;;;;;8.39;97.30;98672.13;2291467;77;20897;-81
2022/12/26 09:28:50;;;;;;;20.80;14.77;;;;;;;8.47;96.88;98670.11;2291722;78;20983;-81
2022/12/26 09:31:50;;;;;;;22.80;14.87;;;;;;;8.58;96.51;98658.16;2291502;78;21264;-80
2022/12/26 09:34:50;;;;;;;22.20;14.67;;;;;;;8.65;96.25;98659.14;2291386;78;20928;-81
2022/12/26 09:37:50;;;;;;;22.50;14.40;;;;;;;8.72;95.77;98651.04;2291818;78;20952;-81
2022/12/26 09:40:51;;;;;;;21.80;14.17;;;;;;;8.84;95.41;98647.33;2292066;78;20912;-81
2022/12/26 09:43:51;;;;;;;19.50;14.90;;;;;;;8.90;94.98;98645.70;2290818;78;20952;-80
2022/12/26 09:46:52;;;;;;;21.57;14.83;;;;;;;8.93;95.11;98652.25;2291887;78;20888;-82
2022/12/26 09:49:52;;;;;;;19.87;14.07;;;;;;;8.97;94.61;98650.56;2291656;78;21015;-83
2022/12/26 09:52:52;;;;;;;17.03;12.30;;;;;;;8.98;94.27;98645.81;2291727;78;20905;-83
2022/12/26 09:55:53;;;;;;;15.70;12.60;;;;;;;9.02;93.77;98626.78;2291636;78;20971;-82
2022/12/26 09:58:53;;;;;;;18.30;13.93;;;;;;;9.06;94.02;98647.22;2291406;78;20960;-82
2022/12/26 10:01:54;;;;;;;22.17;14.17;;;;;;;9.10;94.25;98656.83;2291137;78;21366;-82
2022/12/26 10:04:54;;;;;;;19.30;14.13;;;;;;;9.16;94.07;98647.80;2291849;78;20991;-83
2022/12/26 10:07:54;;;;;;;20.50;15.17;;;;;;;9.22;93.75;98652.67;2292115;78;20988;-83
2022/12/26 10:10:55;;;;;;;19.00;15.10;;;;;;;9.26;93.62;98647.08;2291873;78;20924;-83
2022/12/26 10:13:55;;;;;;;24.83;15.57;;;;;;;9.33;93.44;98641.09;2292079;78;20988;-81
2022/12/26 10:16:56;;;;;;;19.50;14.73;;;;;;;9.42;93.39;98634.70;2291649;78;20994;-82
2022/12/26 10:19:56;;;;;;;21.60;14.83;;;;;;;9.50;92.83;98629.17;2291764;78;21319;-82
2022/12/26 10:22:56;;;;;;;25.37;14.25;;;;;;;9.58;92.83;98630.17;2291653;78;20940;-83
2022/12/26 10:25:57;;;;;;;19.27;13.80;;;;;;;9.68;92.39;98631.58;2291911;78;20956;-82
2022/12/26 10:28:58;;;;;;;19.20;14.63;;;;;;;9.82;92.22;98628.70;2291455;78;21336;-81
2022/12/26 10:31:58;;;;;;;19.77;13.22;;;;;;;9.88;91.84;98616.62;2291934;78;20920;-82
2022/12/26 10:35:00;;;;;;;17.98;13.62;;;;;;;9.95;91.36;98604.52;2267768;78;20939;-82
2022/12/26 10:38:00;;;;;;;20.25;13.75;;;;;;;9.95;90.62;98612.77;2291121;78;20986;-81
2022/12/26 10:41:01;;;;;;;20.15;14.20;;;;;;;9.92;90.61;98612.31;2291291;78;20963;-81
2022/12/26 10:44:01;;;;;;;16.77;12.85;;;;;;;9.93;90.91;98619.27;2291428;78;20943;-82
2022/12/26 10:47:01;;;;;;;19.73;14.05;;;;;;;9.92;90.52;98614.91;2291742;78;20920;-82
2022/12/26 10:50:02;;;;;;;15.53;11.63;;;;;;;9.93;91.06;98612.75;2291797;78;20980;-83
2022/12/26 10:53:02;;;;;;;18.42;13.65;;;;;;;9.98;89.85;98631.05;2292323;78;20936;-82
2022/12/26 10:56:03;;;;;;;20.70;16.12;;;;;;;10.00;90.11;98644.98;2292063;78;21311;-82
2022/12/26 10:59:03;;;;;;;21.20;14.98;;;;;;;10.03;90.69;98640.67;2291995;78;20916;-82
2022/12/26 11:02:03;;;;;;;20.88;15.08;;;;;;;10.07;90.28;98635.06;2291785;78;21002;-83
2022/12/26 11:05:05;;;;;;;20.35;15.60;;;;;;;10.09;90.20;98641.17;2291820;78;20931;-81
2022/12/26 11:08:04;;;;;;;21.45;14.85;;;;;;;10.12;90.23;98647.29;2292022;78;21007;-82
2022/12/26 11:11:05;;;;;;;26.25;16.35;;;;;;;10.19;90.13;98643.89;2292393;78;20915;-81
2022/12/26 11:14:05;;;;;;;23.22;14.38;;;;;;;10.30;88.90;98648.38;2281879;78;21353;-81
2022/12/26 11:17:05;;;;;;;22.65;15.28;;;;;;;10.36;89.23;98645.81;2282129;78;20946;-82
2022/12/26 11:20:06;;;;;;;18.60;12.53;;;;;;;10.43;89.19;98637.22;2282050;78;20942;-81
2022/12/26 11:23:06;;;;;;;19.87;14.40;;;;;;;10.47;88.13;98631.17;2281695;78;20964;-82
2022/12/26 11:26:07;;;;;;;17.95;14.25;;;;;;;10.46;88.45;98626.38;2282232;78;20938;-83
2022/12/26 11:29:07;;;;;;;22.85;14.50;;;;;;;10.44;88.45;98625.48;2281799;78;20978;-82
2022/12/26 11:32:08;;;;;;;21.40;14.93;;;;;;;10.40;88.36;98612.38;2281934;78;20934;-82
2022/12/26 11:35:08;;;;;;;20.35;15.03;;;;;;;10.42;88.55;98623.73;2282150;78;20946;-82
2022/12/26 11:38:08;;;;;;;19.15;13.58;;;;;;;10.47;88.44;98623.34;2282395;78;20906;-83
2022/12/26 11:44:28;;;;;;;22.35;14.70;;;;;;;10.49;87.82;98600.73;2281947;78;21353;-83
2022/12/26 11:47:28;;;;;;;18.63;13.43;;;;;;;10.49;87.40;98600.31;2281587;78;20945;-82
2022/12/26 11:50:28;;;;;;;17.23;12.88;;;;;;;10.48;86.96;98598.99;2281876;78;20956;-81
2022/12/26 11:53:30;;;;;;;17.75;13.18;;;;;;;10.51;87.96;98597.28;2281893;78;21296;-82
2022/12/26 11:56:29;;;;;;;18.42;13.35;;;;;;;10.57;88.04;98601.67;2281953;78;20918;-82
2022/12/26 11:59:30;;;;;;;21.52;13.35;;;;;;;10.59;87.37;98601.26;2281660;78;21304;-82
2022/12/26 12:02:30;;;;;;;20.45;13.60;;;;;;;10.59;87.74;98593.42;2281755;78;20985;-81
2022/12/26 12:05:30;;;;;;;20.92;13.22;;;;;;;10.63;87.82;98594.32;2281458;78;20922;-82
2022/12/26 12:08:31;;;;;;;17.42;12.63;;;;;;;10.65;87.80;98593.47;2281534;78;20989;-82
2022/12/26 12:11:31;;;;;;;16.37;12.78;;;;;;;10.67;87.14;98603.49;2281395;77;20974;-82
2022/12/26 12:14:31;;;;;;;20.05;12.65;;;;;;;10.66;87.40;98599.14;2283163;78;21315;-82
2022/12/26 12:17:32;;;;;;;20.05;13.18;;;;;;;10.64;87.39;98598.25;2292151;77;20971;-81
2022/12/26 12:20:32;;;;;;;19.35;12.90;;;;;;;10.62;87.39;98594.75;2291823;78;20940;-81
2022/12/26 12:23:33;;;;;;;21.45;13.15;;;;;;;10.59;87.59;98581.68;2291769;78;20952;-81
2022/12/26 12:26:33;;;;;;;20.52;13.65;;;;;;;10.61;87.49;98571.25;2291867;77;20929;-81
2022/12/26 12:29:33;;;;;;;19.67;12.95;;;;;;;10.63;87.65;98567.79;2291636;78;20963;-80
2022/12/26 12:32:34;;;;;;;38.00;25.50;;;;;;;10.64;87.40;98576.49;2291804;77;20968;-81
2022/12/26 12:35:34;;;;;;;19.50;14.30;;;;;;;10.66;87.72;98581.30;2291400;77;20971;-81
2022/12/26 12:38:35;;;;;;;19.32;12.98;;;;;;;10.68;87.60;98573.92;2291614;78;20944;-82
2022/12/26 12:41:35;;;;;;;19.60;12.60;;;;;;;10.64;87.47;98582.59;2291969;77;21302;-81
2022/12/26 12:44:35;;;;;;;20.45;13.13;;;;;;;10.60;87.59;98581.25;2292624;78;20935;-82
2022/12/26 12:47:36;;;;;;;15.78;12.10;;;;;;;10.56;87.04;98592.53;2291871;78;20948;-82
2022/12/26 12:50:36;;;;;;;21.42;13.83;;;;;;;10.55;87.40;98578.61;2291834;77;21343;-82
2022/12/26 12:53:37;;;;;;;18.60;12.53;;;;;;;10.59;87.21;98585.59;2291385;78;20946;-81
2022/12/26 12:56:37;;;;;;;19.80;12.70;;;;;;;10.71;87.06;98583.50;2291921;78;20923;-82
2022/12/26 12:59:37;;;;;;;22.13;12.80;;;;;;;10.75;86.44;98577.02;2291771;78;21287;-81
2022/12/26 13:02:38;;;;;;;17.12;13.22;;;;;;;10.75;86.18;98582.23;2291949;77;20982;-81
2022/12/26 13:05:38;;;;;;;50.40;15.32;;;;;;;10.75;86.54;98588.76;2291030;77;20900;-85
2022/12/26 13:08:39;;;;;;;38.33;14.10;;;;;;;12.66;100.00;98565.90;2291028;77;20944;-86
2022/12/26 13:11:39;;;;;;;36.10;14.47;;;;;;;15.23;100.00;98565.80;2291404;77;20971;-86
2022/12/26 13:14:40;;;;;;;33.00;15.15;;;;;;;16.70;91.61;98562.52;2308521;77;20957;-87
2022/12/26 13:17:40;;;;;;;28.00;14.25;;;;;;;17.97;80.62;98547.73;2308679;77;20979;-88
2022/12/26 13:20:40;;;;;;;25.72;14.60;;;;;;;18.81;79.53;98556.34;2305014;77;21287;-85
2022/12/26 13:27:01;;;;;;;28.02;13.85;;;;;;;19.83;71.24;98557.51;2304582;77;20956;-85
2022/12/26 13:30:00;;;;;;;27.42;13.75;;;;;;;19.59;68.42;98569.69;2305130;77;21319;-87
2022/12/26 13:33:00;;;;;;;24.50;13.38;;;;;;;19.79;67.72;98577.05;2304976;77;20971;-85
2022/12/26 13:36:01;;;;;;;29.75;13.35;;;;;;;19.92;67.95;98557.23;2303986;77;20975;-86
2022/12/26 13:39:01;;;;;;;24.80;13.95;;;;;;;19.91;64.35;98552.39;2304763;77;20931;-87
2022/12/26 13:45:21;;;;;;;24.45;16.27;;;;;;;20.23;64.27;98555.41;2306094;77;21010;-86
2022/12/26 13:48:21;;;;;;;24.80;17.37;;;;;;;20.58;62.44;98560.05;2305026;77;20963;-86
2022/12/26 13:51:21;;;;;;;26.23;17.95;;;;;;;20.76;62.24;98559.90;2304767;77;20956;-86
2022/12/26 13:54:22;;;;;;;26.68;16.97;;;;;;;20.74;60.64;98551.13;2304366;77;20986;-85
2022/12/26 13:57:23;;;;;;;24.40;16.65;;;;;;;20.84;60.78;98554.78;2303962;77;20990;-85
2022/12/26 14:00:23;;;;;;;22.75;15.63;;;;;;;20.95;60.17;98553.95;2304023;77;20947;-86
2022/12/26 14:03:23;;;;;;;27.10;15.83;;;;;;;21.02;59.49;98558.58;2303864;77;20950;-86
2022/12/26 14:06:23;;;;;;;24.63;15.40;;;;;;;20.96;58.22;98557.01;2304692;77;20927;-85
2022/12/26 14:09:24;;;;;;;20.82;14.25;;;;;;;20.90;58.11;98571.81;2304722;77;21386;-86
2022/12/26 14:12:24;;;;;;;19.37;13.32;;;;;;;20.84;57.25;98573.34;2301941;77;21035;-86
2022/12/26 14:15:25;;;;;;;20.50;14.95;;;;;;;20.80;57.00;98570.81;2290634;78;20920;-84
2022/12/26 14:18:25;;;;;;;20.05;14.68;;;;;;;20.34;56.67;98563.88;2290679;78;21370;-86
2022/12/26 14:21:25;;;;;;;20.57;14.20;;;;;;;20.30;54.54;98553.42;2290498;78;20963;-86
2022/12/26 14:24:26;;;;;;;18.92;13.32;;;;;;;20.17;57.26;98551.62;2290114;78;20987;-88
2022/12/26 14:27:26;;;;;;;19.45;13.55;;;;;;;20.14;55.80;98569.39;2290994;78;20955;-87
2022/12/26 14:30:27;;;;;;;19.95;13.78;;;;;;;20.38;57.14;98566.43;2290811;78;21286;-87
2022/12/26 14:33:27;;;;;;;21.00;14.07;;;;;;;20.45;55.01;98564.02;2290638;78;20916;-88
2022/12/26 14:36:27;;;;;;;18.55;13.68;;;;;;;20.34;54.88;98565.20;2290486;78;20944;-86
2022/12/26 14:39:28;;;;;;;20.10;13.68;;;;;;;20.34;55.67;98575.80;2290489;78;21382;-86
2022/12/26 14:45:49;;;;;;;19.75;14.15;;;;;;;20.57;54.83;98576.42;2290268;77;21271;-87
2022/12/26 14:48:48;;;;;;;24.50;14.80;;;;;;;20.50;54.25;98573.56;2290393;78;21037;-87
2022/12/26 14:51:48;;;;;;;21.75;15.43;;;;;;;20.34;53.69;98568.31;2290135;78;20964;-87
2022/12/26 14:54:48;;;;;;;25.20;16.67;;;;;;;20.48;53.86;98582.03;2290439;78;20952;-87
2022/12/26 14:57:49;;;;;;;21.42;13.32;;;;;;;20.60;53.57;98573.67;2290918;78;20920;-87
2022/12/26 15:00:49;;;;;;;20.30;13.35;;;;;;;20.61;52.80;98570.56;2291001;78;20900;-86
2022/12/26 15:03:49;;;;;;;22.37;14.35;;;;;;;20.73;52.99;98578.11;2290657;78;21303;-87
2022/12/26 15:06:50;;;;;;;20.95;13.40;;;;;;;20.76;52.65;98587.29;2290367;78;20956;-86
2022/12/26 15:09:50;;;;;;;20.40;14.00;;;;;;;20.80;52.40;98582.30;2290731;78;21007;-87
2022/12/26 15:12:51;;;;;;;21.15;14.28;;;;;;;20.91;52.05;98588.59;2288438;76;21005;-87
2022/12/26 15:15:51;;;;;;;19.50;13.65;;;;;;;20.89;51.95;98582.48;2283802;78;20974;-86
2022/12/26 15:18:51;;;;;;;23.30;14.45;;;;;;;20.77;50.32;98577.55;2286032;78;21372;-87
2022/12/26 15:21:52;;;;;;;26.23;14.33;;;;;;;20.12;51.02;98587.99;2290569;78;21327;-86
2022/12/26 15:24:52;;;;;;;20.90;14.85;;;;;;;20.25;52.57;98586.70;2290187;78;20948;-86
2022/12/26 15:27:53;;;;;;;20.48;15.10;;;;;;;20.42;51.90;98592.83;2291047;78;21012;-87
2022/12/26 15:30:53;;;;;;;24.35;15.53;;;;;;;20.48;51.18;98583.35;2290607;78;21335;-88
2022/12/26 15:33:53;;;;;;;24.92;16.15;;;;;;;20.47;51.18;98574.98;2290788;78;20924;-85
2022/12/26 15:36:54;;;;;;;23.27;16.02;;;;;;;20.06;51.28;98570.95;2290869;78;20951;-86
2022/12/26 15:39:54;;;;;;;25.03;17.17;;;;;;;20.10;52.60;98569.95;2290803;78;20932;-86
2022/12/26 15:42:55;;;;;;;22.13;14.50;;;;;;;20.31;53.35;98563.98;2288745;78;21088;-86
2022/12/26 15:45:55;;;;;;;19.40;14.80;;;;;;;20.52;53.55;98552.30;2290292;78;20998;-86
2022/12/26 15:48:56;;;;;;;23.70;16.17;;;;;;;20.50;53.45;98542.20;2290831;78;20935;-89
2022/12/26 15:51:56;;;;;;;26.02;16.25;;;;;;;20.59;52.91;98535.27;2290761;78;21322;-88
2022/12/26 15:54:56;;;;;;;26.73;17.07;;;;;;;20.72;51.85;98534.40;2290764;78;20960;-88
2022/12/26 15:57:57;;;;;;;23.57;15.48;;;;;;;20.58;52.40;98522.93;2290917;78;20924;-89
2022/12/26 16:01:00;;;;;;;21.05;15.40;;;;;;;20.48;51.52;98532.11;2290487;78;21363;-88
2022/12/26 16:04:00;;;;;;;23.18;14.33;;;;;;;20.45;51.62;98532.21;2290646;78;20986;-90
2022/12/26 16:07:02;;;;;;;22.20;14.63;;;;;;;20.50;51.35;98530.28;2290929;78;20949;-88
2022/12/26 16:10:02;;;;;;;23.62;14.33;;;;;;;20.39;51.13;98525.33;2290743;78;21038;-90
2022/12/26 16:13:03;;;;;;;23.05;13.95;;;;;;;20.09;49.94;98536.88;2290853;78;21029;-86
2022/12/26 16:16:03;;;;;;;20.30;14.05;;;;;;;19.80;51.35;98535.09;2290993;78;21313;-86
2022/12/26 16:19:04;;;;;;;21.60;13.05;;;;;;;19.84;51.98;98534.95;2288567;78;20993;-88